Terminal Aerodrome Forecast
Issued by NWS Caribou, ME

Home | Current Version | Previous Version | Text Only | Print | Product List | Glossary On
Versions: 1 2 3 4 5 6 7 8 9 10 11 12 13 14 15 16 17 18 19
212
FTUS41 KCAR 112337
TAFBGR
TAF
KBGR 112337Z 1200/1224 32010G18KT P6SM VCSH BKN040
     FM120300 32010G18KT P6SM SCT040
     FM120600 32010KT P6SM SCT200
     FM122100 VRB03KT P6SM SCT200=

USA.gov is the U.S. government's official web portal to all federal, state and local government web resources and services.